sensor_id;sensor_type;location;lat;lon;timestamp;temperature;humidity
74153;DHT22;62505;46.070;14.492;2024-01-16T00:01:47;22.20;59.30
74153;DHT22;62505;46.070;14.492;2024-01-16T00:04:14;22.20;59.30
74153;DHT22;62505;46.070;14.492;2024-01-16T00:06:42;22.20;59.30
74153;DHT22;62505;46.070;14.492;2024-01-16T00:09:09;22.20;59.30
74153;DHT22;62505;46.070;14.492;2024-01-16T00:11:40;22.20;59.30
74153;DHT22;62505;46.070;14.492;2024-01-16T00:14:07;22.20;59.30
74153;DHT22;62505;46.070;14.492;2024-01-16T00:16:41;22.20;59.30
74153;DHT22;62505;46.070;14.492;2024-01-16T00:19:09;22.20;59.30
74153;DHT22;62505;46.070;14.492;2024-01-16T00:21:39;22.20;59.30
74153;DHT22;62505;46.070;14.492;2024-01-16T00:24:07;22.20;59.30
74153;DHT22;62505;46.070;14.492;2024-01-16T00:26:35;22.20;59.30
74153;DHT22;62505;46.070;14.492;2024-01-16T00:29:02;22.20;59.30
74153;DHT22;62505;46.070;14.492;2024-01-16T00:31:29;22.20;59.30
74153;DHT22;62505;46.070;14.492;2024-01-16T00:33:56;22.20;59.30
74153;DHT22;62505;46.070;14.492;2024-01-16T00:36:23;22.20;59.30
74153;DHT22;62505;46.070;14.492;2024-01-16T00:38:50;22.20;59.30
74153;DHT22;62505;46.070;14.492;2024-01-16T00:41:18;22.20;59.40
74153;DHT22;62505;46.070;14.492;2024-01-16T00:43:46;22.20;59.40
74153;DHT22;62505;46.070;14.492;2024-01-16T00:46:12;22.20;59.40
74153;DHT22;62505;46.070;14.492;2024-01-16T00:48:39;22.10;59.40
74153;DHT22;62505;46.070;14.492;2024-01-16T00:51:07;22.20;59.40
74153;DHT22;62505;46.070;14.492;2024-01-16T00:53:39;22.20;60.00
74153;DHT22;62505;46.070;14.492;2024-01-16T00:56:06;22.20;59.40
74153;DHT22;62505;46.070;14.492;2024-01-16T00:58:34;22.20;59.40
74153;DHT22;62505;46.070;14.492;2024-01-16T01:01:01;22.20;59.40
74153;DHT22;62505;46.070;14.492;2024-01-16T01:03:28;22.10;59.40
74153;DHT22;62505;46.070;14.492;2024-01-16T01:05:55;22.10;59.40
74153;DHT22;62505;46.070;14.492;2024-01-16T01:08:22;22.20;59.40
74153;DHT22;62505;46.070;14.492;2024-01-16T01:10:49;22.10;59.40
74153;DHT22;62505;46.070;14.492;2024-01-16T01:13:16;22.10;59.30
74153;DHT22;62505;46.070;14.492;2024-01-16T01:15:45;22.20;59.40
74153;DHT22;62505;46.070;14.492;2024-01-16T01:18:12;22.20;59.30
74153;DHT22;62505;46.070;14.492;2024-01-16T01:20:39;22.20;59.40
74153;DHT22;62505;46.070;14.492;2024-01-16T01:23:06;22.10;59.40
74153;DHT22;62505;46.070;14.492;2024-01-16T01:25:33;22.10;59.30
74153;DHT22;62505;46.070;14.492;2024-01-16T01:28:00;22.10;59.30
74153;DHT22;62505;46.070;14.492;2024-01-16T01:30:27;22.10;59.40
74153;DHT22;62505;46.070;14.492;2024-01-16T01:32:56;22.10;59.30
74153;DHT22;62505;46.070;14.492;2024-01-16T01:35:23;22.10;59.40
74153;DHT22;62505;46.070;14.492;2024-01-16T01:37:49;22.20;59.30
74153;DHT22;62505;46.070;14.492;2024-01-16T01:40:16;22.20;59.40
74153;DHT22;62505;46.070;14.492;2024-01-16T01:42:43;22.10;59.30
74153;DHT22;62505;46.070;14.492;2024-01-16T01:45:11;22.10;59.30
74153;DHT22;62505;46.070;14.492;2024-01-16T01:47:39;22.20;59.40
74153;DHT22;62505;46.070;14.492;2024-01-16T01:50:10;22.10;59.30
74153;DHT22;62505;46.070;14.492;2024-01-16T01:52:37;22.10;59.40
74153;DHT22;62505;46.070;14.492;2024-01-16T01:55:07;22.20;59.40
74153;DHT22;62505;46.070;14.492;2024-01-16T01:57:36;22.10;59.30
74153;DHT22;62505;46.070;14.492;2024-01-16T02:00:04;22.10;59.30
74153;DHT22;62505;46.070;14.492;2024-01-16T02:02:32;22.10;59.30
74153;DHT22;62505;46.070;14.492;2024-01-16T02:05:00;22.20;59.30
74153;DHT22;62505;46.070;14.492;2024-01-16T02:07:28;22.10;59.30
74153;DHT22;62505;46.070;14.492;2024-01-16T02:09:56;22.20;59.40
74153;DHT22;62505;46.070;14.492;2024-01-16T02:12:23;22.10;59.30
74153;DHT22;62505;46.070;14.492;2024-01-16T02:14:50;22.10;59.20
74153;DHT22;62505;46.070;14.492;2024-01-16T02:17:17;22.10;59.20
74153;DHT22;62505;46.070;14.492;2024-01-16T02:19:44;22.10;59.20
74153;DHT22;62505;46.070;14.492;2024-01-16T02:22:14;22.10;59.10
74153;DHT22;62505;46.070;14.492;2024-01-16T02:24:44;22.10;59.20
74153;DHT22;62505;46.070;14.492;2024-01-16T02:27:11;22.10;59.20
74153;DHT22;62505;46.070;14.492;2024-01-16T02:29:41;22.10;59.20
74153;DHT22;62505;46.070;14.492;2024-01-16T02:32:10;22.10;59.20
74153;DHT22;62505;46.070;14.492;2024-01-16T02:34:37;22.10;59.10
74153;DHT22;62505;46.070;14.492;2024-01-16T02:37:04;22.10;59.20
74153;DHT22;62505;46.070;14.492;2024-01-16T02:39:31;22.10;59.20
74153;DHT22;62505;46.070;14.492;2024-01-16T02:41:59;22.10;59.10
74153;DHT22;62505;46.070;14.492;2024-01-16T02:44:26;22.10;59.20
74153;DHT22;62505;46.070;14.492;2024-01-16T02:46:53;22.10;59.20
74153;DHT22;62505;46.070;14.492;2024-01-16T02:49:20;22.10;59.20
74153;DHT22;62505;46.070;14.492;2024-01-16T02:51:47;22.10;59.10
74153;DHT22;62505;46.070;14.492;2024-01-16T02:54:14;22.10;59.20
74153;DHT22;62505;46.070;14.492;2024-01-16T02:56:41;22.10;59.30
74153;DHT22;62505;46.070;14.492;2024-01-16T02:59:10;22.10;59.20
74153;DHT22;62505;46.070;14.492;2024-01-16T03:01:37;22.10;59.20
74153;DHT22;62505;46.070;14.492;2024-01-16T03:04:04;22.10;59.10
74153;DHT22;62505;46.070;14.492;2024-01-16T03:06:31;22.10;59.20
74153;DHT22;62505;46.070;14.492;2024-01-16T03:08:58;22.10;59.20
74153;DHT22;62505;46.070;14.492;2024-01-16T03:11:25;22.10;59.20
74153;DHT22;62505;46.070;14.492;2024-01-16T03:13:52;22.10;59.20
74153;DHT22;62505;46.070;14.492;2024-01-16T03:16:20;22.10;59.30
74153;DHT22;62505;46.070;14.492;2024-01-16T03:18:47;22.10;59.30
74153;DHT22;62505;46.070;14.492;2024-01-16T03:21:14;22.10;59.30
74153;DHT22;62505;46.070;14.492;2024-01-16T03:23:41;22.10;59.30
74153;DHT22;62505;46.070;14.492;2024-01-16T03:26:12;22.10;59.40
74153;DHT22;62505;46.070;14.492;2024-01-16T03:28:39;22.10;59.40
74153;DHT22;62505;46.070;14.492;2024-01-16T03:31:07;22.10;59.40
74153;DHT22;62505;46.070;14.492;2024-01-16T03:33:35;22.10;59.40
74153;DHT22;62505;46.070;14.492;2024-01-16T03:36:07;22.10;59.40
74153;DHT22;62505;46.070;14.492;2024-01-16T03:38:35;22.10;59.40
74153;DHT22;62505;46.070;14.492;2024-01-16T03:41:02;22.10;59.40
74153;DHT22;62505;46.070;14.492;2024-01-16T03:43:32;22.10;59.40
74153;DHT22;62505;46.070;14.492;2024-01-16T03:45:59;22.10;59.40
74153;DHT22;62505;46.070;14.492;2024-01-16T03:48:26;22.10;59.40
74153;DHT22;62505;46.070;14.492;2024-01-16T03:50:55;22.10;60.00
74153;DHT22;62505;46.070;14.492;2024-01-16T03:53:22;22.10;59.40
74153;DHT22;62505;46.070;14.492;2024-01-16T03:55:50;22.10;59.40
74153;DHT22;62505;46.070;14.492;2024-01-16T03:58:17;22.10;59.40
74153;DHT22;62505;46.070;14.492;2024-01-16T04:00:44;22.10;59.40
74153;DHT22;62505;46.070;14.492;2024-01-16T04:03:11;22.10;59.40
74153;DHT22;62505;46.070;14.492;2024-01-16T04:05:38;22.10;59.40
74153;DHT22;62505;46.070;14.492;2024-01-16T04:08:07;22.10;59.40
74153;DHT22;62505;46.070;14.492;2024-01-16T04:10:34;22.10;59.40
74153;DHT22;62505;46.070;14.492;2024-01-16T04:13:01;22.10;60.00
74153;DHT22;62505;46.070;14.492;2024-01-16T04:15:28;22.10;59.40
74153;DHT22;62505;46.070;14.492;2024-01-16T04:17:55;22.10;59.30
74153;DHT22;62505;46.070;14.492;2024-01-16T04:20:22;22.10;59.40
74153;DHT22;62505;46.070;14.492;2024-01-16T04:22:49;22.10;59.40
74153;DHT22;62505;46.070;14.492;2024-01-16T04:25:18;22.10;59.40
74153;DHT22;62505;46.070;14.492;2024-01-16T04:27:45;22.10;59.40
74153;DHT22;62505;46.070;14.492;2024-01-16T04:30:12;22.10;59.40
74153;DHT22;62505;46.070;14.492;2024-01-16T04:32:39;22.10;59.40
74153;DHT22;62505;46.070;14.492;2024-01-16T04:35:07;22.10;59.40
74153;DHT22;62505;46.070;14.492;2024-01-16T04:37:34;22.10;59.40
74153;DHT22;62505;46.070;14.492;2024-01-16T04:40:01;22.10;59.40
74153;DHT22;62505;46.070;14.492;2024-01-16T04:42:31;22.10;59.30
74153;DHT22;62505;46.070;14.492;2024-01-16T04:44:58;22.10;59.40
74153;DHT22;62505;46.070;14.492;2024-01-16T04:47:25;22.10;59.30
74153;DHT22;62505;46.070;14.492;2024-01-16T04:49:52;22.10;59.30
74153;DHT22;62505;46.070;14.492;2024-01-16T04:52:19;22.10;59.30
74153;DHT22;62505;46.070;14.492;2024-01-16T04:54:46;22.10;59.30
74153;DHT22;62505;46.070;14.492;2024-01-16T04:57:13;22.10;59.30
74153;DHT22;62505;46.070;14.492;2024-01-16T04:59:42;22.10;59.30
74153;DHT22;62505;46.070;14.492;2024-01-16T05:02:09;22.10;59.90
74153;DHT22;62505;46.070;14.492;2024-01-16T05:04:37;22.10;59.30
74153;DHT22;62505;46.070;14.492;2024-01-16T05:07:04;22.10;59.30
74153;DHT22;62505;46.070;14.492;2024-01-16T05:09:31;22.10;59.30
74153;DHT22;62505;46.070;14.492;2024-01-16T05:11:58;22.10;59.30
74153;DHT22;62505;46.070;14.492;2024-01-16T05:14:25;22.10;59.30
74153;DHT22;62505;46.070;14.492;2024-01-16T05:16:53;22.20;61.40
74153;DHT22;62505;46.070;14.492;2024-01-16T05:19:20;22.20;63.60
74153;DHT22;62505;46.070;14.492;2024-01-16T05:21:47;22.20;64.90
74153;DHT22;62505;46.070;14.492;2024-01-16T05:24:14;22.20;64.90
74153;DHT22;62505;46.070;14.492;2024-01-16T05:26:41;22.20;64.20
74153;DHT22;62505;46.070;14.492;2024-01-16T05:29:09;22.30;64.50
74153;DHT22;62505;46.070;14.492;2024-01-16T05:31:39;22.30;64.80
74153;DHT22;62505;46.070;14.492;2024-01-16T05:34:08;22.40;64.60
74153;DHT22;62505;46.070;14.492;2024-01-16T05:36:35;22.40;64.70
74153;DHT22;62505;46.070;14.492;2024-01-16T05:39:02;22.50;64.70
74153;DHT22;62505;46.070;14.492;2024-01-16T05:41:32;22.50;64.20
74153;DHT22;62505;46.070;14.492;2024-01-16T05:44:00;22.40;63.70
74153;DHT22;62505;46.070;14.492;2024-01-16T05:46:29;22.40;63.40
74153;DHT22;62505;46.070;14.492;2024-01-16T05:48:56;22.40;63.30
74153;DHT22;62505;46.070;14.492;2024-01-16T05:51:25;22.40;62.30
74153;DHT22;62505;46.070;14.492;2024-01-16T05:53:52;22.30;62.40
74153;DHT22;62505;46.070;14.492;2024-01-16T05:56:19;22.30;61.80
74153;DHT22;62505;46.070;14.492;2024-01-16T05:58:46;22.30;61.70
74153;DHT22;62505;46.070;14.492;2024-01-16T06:01:13;22.30;62.10
74153;DHT22;62505;46.070;14.492;2024-01-16T06:03:40;22.30;61.70
74153;DHT22;62505;46.070;14.492;2024-01-16T06:06:11;22.30;61.90
74153;DHT22;62505;46.070;14.492;2024-01-16T06:08:39;22.30;61.60
74153;DHT22;62505;46.070;14.492;2024-01-16T06:11:06;22.20;61.70
74153;DHT22;62505;46.070;14.492;2024-01-16T06:13:33;22.20;61.70
74153;DHT22;62505;46.070;14.492;2024-01-16T06:16:00;22.20;61.70
74153;DHT22;62505;46.070;14.492;2024-01-16T06:18:28;22.20;61.70
74153;DHT22;62505;46.070;14.492;2024-01-16T06:20:54;22.20;61.60
74153;DHT22;62505;46.070;14.492;2024-01-16T06:23:21;22.20;61.60
74153;DHT22;62505;46.070;14.492;2024-01-16T06:25:50;22.20;61.60
74153;DHT22;62505;46.070;14.492;2024-01-16T06:28:17;22.20;61.70
74153;DHT22;62505;46.070;14.492;2024-01-16T06:30:44;22.20;61.80
74153;DHT22;62505;46.070;14.492;2024-01-16T06:33:11;22.20;61.80
74153;DHT22;62505;46.070;14.492;2024-01-16T06:35:38;22.20;61.60
74153;DHT22;62505;46.070;14.492;2024-01-16T06:38:05;22.20;62.50
74153;DHT22;62505;46.070;14.492;2024-01-16T06:40:32;22.20;61.70
74153;DHT22;62505;46.070;14.492;2024-01-16T06:43:01;22.20;61.80
74153;DHT22;62505;46.070;14.492;2024-01-16T06:45:28;22.20;61.70
74153;DHT22;62505;46.070;14.492;2024-01-16T06:47:55;22.20;61.70
74153;DHT22;62505;46.070;14.492;2024-01-16T06:50:22;22.20;61.70
74153;DHT22;62505;46.070;14.492;2024-01-16T06:52:49;22.20;61.70
74153;DHT22;62505;46.070;14.492;2024-01-16T06:55:16;22.20;61.60
74153;DHT22;62505;46.070;14.492;2024-01-16T06:57:43;22.20;61.50
74153;DHT22;62505;46.070;14.492;2024-01-16T07:00:15;22.20;61.70
74153;DHT22;62505;46.070;14.492;2024-01-16T07:02:42;22.20;61.80
74153;DHT22;62505;46.070;14.492;2024-01-16T07:05:11;22.20;61.60
74153;DHT22;62505;46.070;14.492;2024-01-16T07:07:40;22.20;61.60
74153;DHT22;62505;46.070;14.492;2024-01-16T07:10:08;22.20;61.70
74153;DHT22;62505;46.070;14.492;2024-01-16T07:12:39;22.20;61.50
74153;DHT22;62505;46.070;14.492;2024-01-16T07:15:07;22.20;61.50
74153;DHT22;62505;46.070;14.492;2024-01-16T07:17:35;22.20;61.50
74153;DHT22;62505;46.070;14.492;2024-01-16T07:20:02;22.20;61.30
74153;DHT22;62505;46.070;14.492;2024-01-16T07:22:29;22.20;61.20
74153;DHT22;62505;46.070;14.492;2024-01-16T07:24:56;22.20;61.30
74153;DHT22;62505;46.070;14.492;2024-01-16T07:27:23;22.20;61.50
74153;DHT22;62505;46.070;14.492;2024-01-16T07:29:50;22.20;61.20
74153;DHT22;62505;46.070;14.492;2024-01-16T07:32:17;22.30;61.80
74153;DHT22;62505;46.070;14.492;2024-01-16T07:34:46;22.30;61.80
74153;DHT22;62505;46.070;14.492;2024-01-16T07:37:12;22.30;61.50
74153;DHT22;62505;46.070;14.492;2024-01-16T07:39:41;22.30;61.30
74153;DHT22;62505;46.070;14.492;2024-01-16T07:42:08;22.30;61.50
74153;DHT22;62505;46.070;14.492;2024-01-16T07:44:35;22.30;61.30
74153;DHT22;62505;46.070;14.492;2024-01-16T07:47:02;22.30;61.10
74153;DHT22;62505;46.070;14.492;2024-01-16T07:49:30;22.20;61.20
74153;DHT22;62505;46.070;14.492;2024-01-16T07:51:58;22.20;61.30
74153;DHT22;62505;46.070;14.492;2024-01-16T07:54:25;22.20;61.20
74153;DHT22;62505;46.070;14.492;2024-01-16T07:56:52;22.20;61.30
74153;DHT22;62505;46.070;14.492;2024-01-16T07:59:19;22.20;61.20
74153;DHT22;62505;46.070;14.492;2024-01-16T08:01:46;22.20;61.20
74153;DHT22;62505;46.070;14.492;2024-01-16T08:04:13;22.20;61.10
74153;DHT22;62505;46.070;14.492;2024-01-16T08:06:40;22.20;61.20
74153;DHT22;62505;46.070;14.492;2024-01-16T08:09:08;22.20;61.20
74153;DHT22;62505;46.070;14.492;2024-01-16T08:11:37;22.20;61.30
74153;DHT22;62505;46.070;14.492;2024-01-16T08:14:05;22.20;61.20
74153;DHT22;62505;46.070;14.492;2024-01-16T08:16:32;22.20;61.20
74153;DHT22;62505;46.070;14.492;2024-01-16T08:18:59;22.20;61.20
74153;DHT22;62505;46.070;14.492;2024-01-16T08:21:25;22.20;61.20
74153;DHT22;62505;46.070;14.492;2024-01-16T08:23:52;22.20;62.10
74153;DHT22;62505;46.070;14.492;2024-01-16T08:26:21;22.20;61.20
74153;DHT22;62505;46.070;14.492;2024-01-16T08:28:48;22.20;61.20
74153;DHT22;62505;46.070;14.492;2024-01-16T08:31:17;22.20;61.20
74153;DHT22;62505;46.070;14.492;2024-01-16T08:33:44;22.20;61.20
74153;DHT22;62505;46.070;14.492;2024-01-16T08:36:11;22.20;61.20
74153;DHT22;62505;46.070;14.492;2024-01-16T08:38:38;22.20;61.20
74153;DHT22;62505;46.070;14.492;2024-01-16T08:41:06;22.20;61.20
74153;DHT22;62505;46.070;14.492;2024-01-16T08:43:35;22.20;61.20
74153;DHT22;62505;46.070;14.492;2024-01-16T08:46:03;22.20;61.20
74153;DHT22;62505;46.070;14.492;2024-01-16T08:48:30;22.20;61.20
74153;DHT22;62505;46.070;14.492;2024-01-16T08:50:57;22.20;61.20
74153;DHT22;62505;46.070;14.492;2024-01-16T08:53:24;22.20;61.10
74153;DHT22;62505;46.070;14.492;2024-01-16T08:55:51;22.20;61.20
74153;DHT22;62505;46.070;14.492;2024-01-16T08:58:18;22.20;61.20
74153;DHT22;62505;46.070;14.492;2024-01-16T09:00:46;22.20;61.20
74153;DHT22;62505;46.070;14.492;2024-01-16T09:03:13;22.20;61.20
74153;DHT22;62505;46.070;14.492;2024-01-16T09:05:40;22.20;61.10
74153;DHT22;62505;46.070;14.492;2024-01-16T09:08:08;22.20;61.20
74153;DHT22;62505;46.070;14.492;2024-01-16T09:10:35;22.20;61.10
74153;DHT22;62505;46.070;14.492;2024-01-16T09:13:03;22.20;61.10
74153;DHT22;62505;46.070;14.492;2024-01-16T09:15:30;22.20;61.10
74153;DHT22;62505;46.070;14.492;2024-01-16T09:17:58;22.20;61.10
74153;DHT22;62505;46.070;14.492;2024-01-16T09:20:25;22.20;61.10
74153;DHT22;62505;46.070;14.492;2024-01-16T09:22:52;22.20;61.10
74153;DHT22;62505;46.070;14.492;2024-01-16T09:25:19;22.20;61.00
74153;DHT22;62505;46.070;14.492;2024-01-16T09:27:49;22.20;61.00
74153;DHT22;62505;46.070;14.492;2024-01-16T09:30:16;22.20;61.00
74153;DHT22;62505;46.070;14.492;2024-01-16T09:32:44;22.20;61.00
74153;DHT22;62505;46.070;14.492;2024-01-16T09:35:12;22.20;61.00
74153;DHT22;62505;46.070;14.492;2024-01-16T09:37:39;22.20;61.00
74153;DHT22;62505;46.070;14.492;2024-01-16T09:40:07;22.20;61.10
74153;DHT22;62505;46.070;14.492;2024-01-16T09:42:34;22.20;61.00
74153;DHT22;62505;46.070;14.492;2024-01-16T09:45:01;22.20;61.00
74153;DHT22;62505;46.070;14.492;2024-01-16T09:47:30;22.20;61.00
74153;DHT22;62505;46.070;14.492;2024-01-16T09:49:58;22.20;61.00
74153;DHT22;62505;46.070;14.492;2024-01-16T09:52:27;22.20;61.00
74153;DHT22;62505;46.070;14.492;2024-01-16T09:54:54;22.20;61.00
74153;DHT22;62505;46.070;14.492;2024-01-16T09:57:24;22.20;61.00
74153;DHT22;62505;46.070;14.492;2024-01-16T09:59:52;22.20;61.00
74153;DHT22;62505;46.070;14.492;2024-01-16T10:02:19;22.20;61.00
74153;DHT22;62505;46.070;14.492;2024-01-16T10:04:46;22.20;60.90
74153;DHT22;62505;46.070;14.492;2024-01-16T10:07:14;22.20;60.90
74153;DHT22;62505;46.070;14.492;2024-01-16T10:09:44;22.20;60.90
74153;DHT22;62505;46.070;14.492;2024-01-16T10:12:11;22.20;61.00
74153;DHT22;62505;46.070;14.492;2024-01-16T10:14:39;22.20;61.00
74153;DHT22;62505;46.070;14.492;2024-01-16T10:17:06;22.20;61.00
74153;DHT22;62505;46.070;14.492;2024-01-16T10:19:48;22.20;60.90
74153;DHT22;62505;46.070;14.492;2024-01-16T10:22:20;22.20;61.00
74153;DHT22;62505;46.070;14.492;2024-01-16T10:24:49;22.20;60.90
74153;DHT22;62505;46.070;14.492;2024-01-16T10:27:17;22.20;60.90
74153;DHT22;62505;46.070;14.492;2024-01-16T10:29:54;22.20;60.90
74153;DHT22;62505;46.070;14.492;2024-01-16T10:32:29;22.20;60.90
74153;DHT22;62505;46.070;14.492;2024-01-16T10:35:03;22.20;60.90
74153;DHT22;62505;46.070;14.492;2024-01-16T10:37:31;22.20;60.90
74153;DHT22;62505;46.070;14.492;2024-01-16T10:40:09;22.20;60.90
74153;DHT22;62505;46.070;14.492;2024-01-16T10:42:36;22.20;60.90
74153;DHT22;62505;46.070;14.492;2024-01-16T10:45:05;22.20;60.80
74153;DHT22;62505;46.070;14.492;2024-01-16T10:47:32;22.20;60.90
74153;DHT22;62505;46.070;14.492;2024-01-16T10:50:03;22.20;60.90
74153;DHT22;62505;46.070;14.492;2024-01-16T10:52:33;22.20;60.80
74153;DHT22;62505;46.070;14.492;2024-01-16T10:55:03;22.20;60.90
74153;DHT22;62505;46.070;14.492;2024-01-16T10:57:38;22.20;60.90
74153;DHT22;62505;46.070;14.492;2024-01-16T11:00:09;22.20;60.90
74153;DHT22;62505;46.070;14.492;2024-01-16T11:02:43;22.20;60.80
74153;DHT22;62505;46.070;14.492;2024-01-16T11:05:12;22.20;60.80
74153;DHT22;62505;46.070;14.492;2024-01-16T11:07:40;22.20;60.90
74153;DHT22;62505;46.070;14.492;2024-01-16T11:10:09;22.20;60.80
74153;DHT22;62505;46.070;14.492;2024-01-16T11:12:39;22.20;60.80
74153;DHT22;62505;46.070;14.492;2024-01-16T11:15:08;22.20;60.80
74153;DHT22;62505;46.070;14.492;2024-01-16T11:17:38;22.20;60.70
74153;DHT22;62505;46.070;14.492;2024-01-16T11:20:09;22.20;60.80
74153;DHT22;62505;46.070;14.492;2024-01-16T11:22:38;22.20;60.70
74153;DHT22;62505;46.070;14.492;2024-01-16T11:25:13;22.20;60.70
74153;DHT22;62505;46.070;14.492;2024-01-16T11:27:43;22.20;60.80
74153;DHT22;62505;46.070;14.492;2024-01-16T11:30:12;22.20;60.80
74153;DHT22;62505;46.070;14.492;2024-01-16T11:32:53;22.20;60.70
74153;DHT22;62505;46.070;14.492;2024-01-16T11:35:31;22.20;60.70
74153;DHT22;62505;46.070;14.492;2024-01-16T11:38:04;22.20;60.70
74153;DHT22;62505;46.070;14.492;2024-01-16T11:40:35;22.20;60.70
74153;DHT22;62505;46.070;14.492;2024-01-16T11:46:03;22.20;60.70
74153;DHT22;62505;46.070;14.492;2024-01-16T11:48:30;22.20;60.70
74153;DHT22;62505;46.070;14.492;2024-01-16T11:50:57;22.20;60.70
74153;DHT22;62505;46.070;14.492;2024-01-16T11:53:35;22.10;60.70
74153;DHT22;62505;46.070;14.492;2024-01-16T11:59:38;22.20;60.70
74153;DHT22;62505;46.070;14.492;2024-01-16T12:02:12;22.20;60.70
74153;DHT22;62505;46.070;14.492;2024-01-16T12:04:41;22.20;60.70
74153;DHT22;62505;46.070;14.492;2024-01-16T12:07:08;22.20;60.70
74153;DHT22;62505;46.070;14.492;2024-01-16T12:09:36;22.10;60.60
74153;DHT22;62505;46.070;14.492;2024-01-16T12:12:04;22.20;60.70
74153;DHT22;62505;46.070;14.492;2024-01-16T12:14:31;22.10;60.70
74153;DHT22;62505;46.070;14.492;2024-01-16T12:17:12;22.10;60.50
74153;DHT22;62505;46.070;14.492;2024-01-16T12:19:40;22.10;59.50
74153;DHT22;62505;46.070;14.492;2024-01-16T12:22:08;22.10;58.90
74153;DHT22;62505;46.070;14.492;2024-01-16T12:24:36;22.10;58.70
74153;DHT22;62505;46.070;14.492;2024-01-16T12:27:04;22.10;58.20
74153;DHT22;62505;46.070;14.492;2024-01-16T12:29:31;22.10;58.30
74153;DHT22;62505;46.070;14.492;2024-01-16T12:32:06;22.10;58.60
74153;DHT22;62505;46.070;14.492;2024-01-16T12:34:34;22.10;56.80
74153;DHT22;62505;46.070;14.492;2024-01-16T12:37:05;22.00;51.30
74153;DHT22;62505;46.070;14.492;2024-01-16T12:39:33;21.90;46.70
74153;DHT22;62505;46.070;14.492;2024-01-16T12:42:01;21.80;45.80
74153;DHT22;62505;46.070;14.492;2024-01-16T12:44:29;21.70;44.90
74153;DHT22;62505;46.070;14.492;2024-01-16T12:46:57;21.70;43.40
74153;DHT22;62505;46.070;14.492;2024-01-16T12:49:24;21.60;43.60
74153;DHT22;62505;46.070;14.492;2024-01-16T12:52:19;21.50;41.60
74153;DHT22;62505;46.070;14.492;2024-01-16T12:54:46;21.40;41.00
74153;DHT22;62505;46.070;14.492;2024-01-16T12:57:18;21.30;40.10
74153;DHT22;62505;46.070;14.492;2024-01-16T12:59:46;21.30;39.40
74153;DHT22;62505;46.070;14.492;2024-01-16T13:02:20;21.20;39.70
74153;DHT22;62505;46.070;14.492;2024-01-16T13:04:55;21.20;38.50
74153;DHT22;62505;46.070;14.492;2024-01-16T13:07:25;21.10;38.90
74153;DHT22;62505;46.070;14.492;2024-01-16T13:10:09;21.10;38.40
74153;DHT22;62505;46.070;14.492;2024-01-16T13:12:37;21.10;39.10
74153;DHT22;62505;46.070;14.492;2024-01-16T13:15:05;21.10;38.70
74153;DHT22;62505;46.070;14.492;2024-01-16T13:17:32;21.10;38.50
74153;DHT22;62505;46.070;14.492;2024-01-16T13:20:00;21.00;37.90
74153;DHT22;62505;46.070;14.492;2024-01-16T13:22:30;21.00;37.40
74153;DHT22;62505;46.070;14.492;2024-01-16T13:24:57;20.90;37.60
74153;DHT22;62505;46.070;14.492;2024-01-16T13:27:24;20.90;36.90
74153;DHT22;62505;46.070;14.492;2024-01-16T13:29:52;20.90;37.10
74153;DHT22;62505;46.070;14.492;2024-01-16T13:32:19;20.80;36.20
74153;DHT22;62505;46.070;14.492;2024-01-16T13:34:47;20.70;36.10
74153;DHT22;62505;46.070;14.492;2024-01-16T13:37:20;20.70;35.90
74153;DHT22;62505;46.070;14.492;2024-01-16T13:39:49;20.70;36.10
74153;DHT22;62505;46.070;14.492;2024-01-16T13:42:15;20.60;35.50
74153;DHT22;62505;46.070;14.492;2024-01-16T13:44:45;20.60;35.90
74153;DHT22;62505;46.070;14.492;2024-01-16T13:47:15;20.60;35.50
74153;DHT22;62505;46.070;14.492;2024-01-16T13:49:44;20.50;35.90
74153;DHT22;62505;46.070;14.492;2024-01-16T13:52:11;20.50;35.30
74153;DHT22;62505;46.070;14.492;2024-01-16T13:54:38;20.50;35.90
74153;DHT22;62505;46.070;14.492;2024-01-16T13:57:07;20.50;36.30
74153;DHT22;62505;46.070;14.492;2024-01-16T13:59:35;20.50;35.30
74153;DHT22;62505;46.070;14.492;2024-01-16T14:02:02;20.50;35.10
74153;DHT22;62505;46.070;14.492;2024-01-16T14:04:30;20.50;34.80
74153;DHT22;62505;46.070;14.492;2024-01-16T14:06:57;20.40;35.00
74153;DHT22;62505;46.070;14.492;2024-01-16T14:09:24;20.40;38.70
74153;DHT22;62505;46.070;14.492;2024-01-16T14:11:51;20.60;38.30
74153;DHT22;62505;46.070;14.492;2024-01-16T14:14:19;20.90;39.80
74153;DHT22;62505;46.070;14.492;2024-01-16T14:16:46;21.10;39.50
74153;DHT22;62505;46.070;14.492;2024-01-16T14:19:15;21.20;39.60
74153;DHT22;62505;46.070;14.492;2024-01-16T14:21:43;21.30;40.30
74153;DHT22;62505;46.070;14.492;2024-01-16T14:24:10;21.30;40.60
74153;DHT22;62505;46.070;14.492;2024-01-16T14:26:37;21.30;41.00
74153;DHT22;62505;46.070;14.492;2024-01-16T14:29:04;21.40;42.00
74153;DHT22;62505;46.070;14.492;2024-01-16T14:31:34;21.40;44.90
74153;DHT22;62505;46.070;14.492;2024-01-16T14:34:01;21.40;47.90
74153;DHT22;62505;46.070;14.492;2024-01-16T14:36:29;21.40;47.40
74153;DHT22;62505;46.070;14.492;2024-01-16T14:38:56;21.40;47.80
74153;DHT22;62505;46.070;14.492;2024-01-16T14:41:23;21.40;48.10
74153;DHT22;62505;46.070;14.492;2024-01-16T14:43:51;21.40;47.80
74153;DHT22;62505;46.070;14.492;2024-01-16T14:46:18;21.40;48.20
74153;DHT22;62505;46.070;14.492;2024-01-16T14:48:46;21.40;49.10
74153;DHT22;62505;46.070;14.492;2024-01-16T14:51:13;21.40;49.50
74153;DHT22;62505;46.070;14.492;2024-01-16T14:53:40;21.40;49.70
74153;DHT22;62505;46.070;14.492;2024-01-16T14:56:07;21.40;50.10
74153;DHT22;62505;46.070;14.492;2024-01-16T14:58:35;21.40;49.70
74153;DHT22;62505;46.070;14.492;2024-01-16T15:01:02;21.30;49.90
74153;DHT22;62505;46.070;14.492;2024-01-16T15:03:30;21.40;48.30
74153;DHT22;62505;46.070;14.492;2024-01-16T15:05:58;21.40;48.70
74153;DHT22;62505;46.070;14.492;2024-01-16T15:08:25;21.40;49.00
74153;DHT22;62505;46.070;14.492;2024-01-16T15:10:54;21.30;49.10
74153;DHT22;62505;46.070;14.492;2024-01-16T15:13:21;21.40;49.00
74153;DHT22;62505;46.070;14.492;2024-01-16T15:15:49;21.40;49.30
74153;DHT22;62505;46.070;14.492;2024-01-16T15:18:17;21.40;49.40
74153;DHT22;62505;46.070;14.492;2024-01-16T15:20:44;21.40;49.80
74153;DHT22;62505;46.070;14.492;2024-01-16T15:23:13;21.50;50.00
74153;DHT22;62505;46.070;14.492;2024-01-16T15:25:40;21.40;50.00
74153;DHT22;62505;46.070;14.492;2024-01-16T15:28:07;21.50;50.20